Wetterdaten der Wetterstation 41540 Dormagen

Letzte Wetterlage 22.11.2014 11:04
Wetterdiagramm
Tabellarische Darstellung
Datum Temperatur Windchill Feuchte Luftdruck Windrichtung Windstärke Niederschlag
22.11.2014 11:04 8,6 °C 5,4 °C 81 % 1019,8 hPa 135 3.1 0,00 mm
22.11.2014 10:54 8,3 °C 8,3 °C 81 % 1020,1 hPa 158 1.7 0,00 mm
22.11.2014 10:44 7,9 °C 5,5 °C 82 % 1020,0 hPa 90 2.7 0,00 mm
22.11.2014 10:34 7,6 °C 7,6 °C 82 % 1020,1 hPa 135 1.4 0,00 mm
22.11.2014 10:24 7,3 °C 7,3 °C 82 % 1020,0 hPa 0 0.3 0,00 mm
22.11.2014 10:14 7,1 °C 2,5 °C 82 % 1019,8 hPa 135 3.7 0,00 mm
22.11.2014 10:04 6,8 °C 2,1 °C 83 % 1019,8 hPa 135 3.7 0,00 mm
22.11.2014 09:54 6,6 °C -0,9 °C 83 % 1019,6 hPa 90 5.4 0,00 mm
22.11.2014 09:44 6,4 °C 2,9 °C 83 % 1019,7 hPa 135 3.1 0,00 mm
22.11.2014 09:34 6,2 °C 6,2 °C 84 % 1020,0 hPa 135 2.0 0,00 mm
22.11.2014 09:24 5,9 °C 5,9 °C 85 % 1019,7 hPa 90 1.4 0,00 mm
22.11.2014 09:14 5,7 °C 3,8 °C 85 % 1019,7 hPa 90 2.4 0,00 mm
22.11.2014 09:04 5,5 °C 1,9 °C 85 % 1019,9 hPa 135 3.1 0,00 mm
22.11.2014 08:54 5,3 °C 5,3 °C 85 % 1019,9 hPa 180 1.7 0,00 mm
22.11.2014 08:44 5,2 °C 3,3 °C 84 % 1019,9 hPa 135 2.4 0,00 mm
22.11.2014 08:34 5,1 °C 3,2 °C 84 % 1019,8 hPa 158 2.4 0,00 mm
22.11.2014 08:24 5,1 °C 5,1 °C 84 % 1019,9 hPa 90 1.7 0,00 mm
22.11.2014 08:14 5,0 °C 3,1 °C 84 % 1019,7 hPa 90 2.4 0,00 mm
22.11.2014 08:04 5,0 °C 5,0 °C 84 % 1019,9 hPa 135 1.7 0,00 mm
22.11.2014 07:54 5,0 °C 5,0 °C 84 % 1019,7 hPa 135 2.0 0,00 mm
22.11.2014 07:44 5,0 °C 5,0 °C 84 % 1019,8 hPa 90 1.7 0,00 mm
22.11.2014 07:34 5,0 °C 5,0 °C 84 % 1019,5 hPa 135 2.0 0,00 mm
22.11.2014 07:24 5,0 °C 5,0 °C 84 % 1019,5 hPa 135 1.7 0,00 mm
22.11.2014 07:14 5,1 °C 1,4 °C 84 % 1019,6 hPa 158 3.1 0,00 mm
22.11.2014 07:04 5,1 °C 1,4 °C 84 % 1019,4 hPa 113 3.1 0,00 mm
Empfehlen Sie wetter.com
| Mehr
Neue Wetterwarnung

Neue Niederschlagsmeldung
Neue Meldung
Regen Liveticker
    sehr starker Regen/Gewitter
    starker Regen/Gewitter
    mäßiger bis starker Regen
    mäßiger Regen
    leichter bis mäßiger Regen
    kein Regen